Time;durP1;ratioP1;P1;durP2;ratioP2;P2;SDS_P1;SDS_P2;PMS_P1;PMS_P2;Temp;Humidity;BMP_temperature;BMP_pressure;BME280_temperature;BME280_humidity;BME280_pressure;Samples;Min_cycle;Max_cycle;Signal;HPM_P1;HPM_P2
2022/05/20 00:00:27;;;;;;;;;;;;;;;14.60;78.88;102141.72;5052805;28;19925;-57
2022/05/20 00:02:52;;;;;;;;;;;;;;;14.59;78.80;102149.88;5052411;28;20613;-57
2022/05/20 00:05:17;;;;;;;;;;;;;;;14.57;79.14;102144.72;5050478;28;19921;-57
2022/05/20 00:07:42;;;;;;;;;;;;;;;14.56;79.19;102144.84;5046440;28;19916;-57
2022/05/20 00:10:09;;;;;;;;;;;;;;;14.49;78.91;102144.63;5052347;28;20322;-57
2022/05/20 00:12:34;;;;;;;;;;;;;;;14.46;78.94;102139.63;5050532;28;19917;-57
2022/05/20 00:14:59;;;;;;;;;;;;;;;14.43;79.14;102134.56;5051188;28;20394;-57
2022/05/20 00:17:24;;;;;;;;;;;;;;;14.38;79.25;102133.22;5052881;28;19917;-57
2022/05/20 00:19:50;;;;;;;;;;;;;;;14.36;78.92;102139.72;5050189;28;19948;-57
2022/05/20 00:22:15;;;;;;;;;;;;;;;14.34;78.94;102141.69;4991744;28;1699517;-57
2022/05/20 00:25:45;;;;;;;;;;;;;;;14.30;79.20;102141.16;5053590;28;19925;-57
2022/05/20 00:27:25;;;;;;;;;;;;;;;14.26;79.06;102137.09;5053819;28;19925;-57
2022/05/20 00:29:51;;;;;;;;;;;;;;;14.24;79.34;102139.09;5053051;28;19940;-57
2022/05/20 00:32:16;;;;;;;;;;;;;;;14.22;78.86;102128.56;5052838;28;20342;-57
2022/05/20 00:34:41;;;;;;;;;;;;;;;14.20;79.11;102125.22;5051900;28;19936;-57
2022/05/20 00:37:06;;;;;;;;;;;;;;;14.19;79.34;102128.06;5052598;28;20340;-57
2022/05/20 00:39:31;;;;;;;;;;;;;;;14.19;79.21;102133.38;5053475;28;19928;-57
2022/05/20 00:41:56;;;;;;;;;;;;;;;14.15;79.48;102134.69;5053633;28;20359;-58
2022/05/20 00:44:21;;;;;;;;;;;;;;;14.05;79.20;102130.28;5050736;28;19921;-57
2022/05/20 00:46:47;;;;;;;;;;;;;;;13.97;79.33;102130.22;5051369;28;20668;-57
2022/05/20 00:49:13;;;;;;;;;;;;;;;13.94;79.66;102125.16;5052604;28;19925;-58
2022/05/20 00:51:41;;;;;;;;;;;;;;;13.94;79.58;102122.50;5052466;28;19956;-57
2022/05/20 00:54:10;;;;;;;;;;;;;;;13.97;79.59;102130.22;5051204;28;19920;-57
2022/05/20 00:56:40;;;;;;;;;;;;;;;13.97;79.19;102124.88;5044983;28;20272;-57
2022/05/20 00:59:08;;;;;;;;;;;;;;;13.94;79.05;102125.16;5052418;28;19982;-58
2022/05/20 01:01:34;;;;;;;;;;;;;;;13.87;79.15;102124.94;5053248;28;20298;-57
2022/05/20 01:04:00;;;;;;;;;;;;;;;13.83;79.04;102129.72;5046197;28;19964;-57
2022/05/20 01:06:26;;;;;;;;;;;;;;;13.79;79.26;102122.19;5052934;28;19956;-57
2022/05/20 01:08:51;;;;;;;;;;;;;;;13.75;79.41;102119.00;5040006;28;19956;-58
2022/05/20 01:11:16;;;;;;;;;;;;;;;13.72;79.41;102128.13;5046035;28;20335;-58
2022/05/20 01:13:44;;;;;;;;;;;;;;;13.72;79.46;102121.97;5046437;28;19924;-57
2022/05/20 01:16:11;;;;;;;;;;;;;;;13.70;79.49;102129.25;5052743;28;19952;-58
2022/05/20 01:18:40;;;;;;;;;;;;;;;13.70;79.49;102132.78;5050195;28;19970;-57
2022/05/20 01:21:05;;;;;;;;;;;;;;;13.68;79.49;102129.41;5049899;28;19920;-58
2022/05/20 01:23:33;;;;;;;;;;;;;;;13.68;79.18;102131.25;5051390;28;20279;-57
2022/05/20 01:25:58;;;;;;;;;;;;;;;13.67;79.12;102124.25;5052350;28;19927;-57
2022/05/20 01:28:24;;;;;;;;;;;;;;;13.64;79.25;102125.38;5052467;28;19917;-57
2022/05/20 01:30:52;;;;;;;;;;;;;;;13.61;79.44;102119.53;5051521;28;19927;-58
2022/05/20 01:33:25;;;;;;;;;;;;;;;13.61;79.37;102116.84;5051768;28;19921;-57
2022/05/20 01:35:50;;;;;;;;;;;;;;;13.55;79.53;102111.13;5049200;28;19921;-58
2022/05/20 01:38:16;;;;;;;;;;;;;;;13.53;79.54;102112.25;5052563;28;20438;-58
2022/05/20 01:40:46;;;;;;;;;;;;;;;13.51;79.56;102109.75;5052190;28;19924;-57
2022/05/20 01:43:31;;;;;;;;;;;;;;;13.49;79.71;102111.72;5048424;28;19928;-57
2022/05/20 01:46:01;;;;;;;;;;;;;;;13.47;79.68;102102.22;5000135;28;19928;-57
2022/05/20 01:48:37;;;;;;;;;;;;;;;13.45;79.72;102094.31;5041105;28;19921;-57
2022/05/20 01:51:06;;;;;;;;;;;;;;;13.42;79.51;102094.63;5050234;28;19964;-57
2022/05/20 01:53:40;;;;;;;;;;;;;;;13.40;79.82;102086.78;5050549;28;19932;-57
2022/05/20 01:56:09;;;;;;;;;;;;;;;13.36;79.80;102089.91;5040623;28;19952;-57
2022/05/20 01:58:34;;;;;;;;;;;;;;;13.35;79.86;102098.84;5045210;28;19920;-57
2022/05/20 02:01:02;;;;;;;;;;;;;;;13.34;79.76;102089.19;5044627;28;19921;-57
2022/05/20 02:03:30;;;;;;;;;;;;;;;13.31;79.85;102088.53;5048472;28;19920;-57
2022/05/20 02:05:59;;;;;;;;;;;;;;;13.30;79.83;102089.50;5047764;28;19928;-57
2022/05/20 02:08:31;;;;;;;;;;;;;;;13.29;80.01;102090.50;5043380;28;19925;-57
2022/05/20 02:11:16;;;;;;;;;;;;;;;13.27;79.95;102087.13;5050648;28;20574;-57
2022/05/20 02:13:47;;;;;;;;;;;;;;;13.27;79.75;102084.47;5047628;28;20480;-57
2022/05/20 02:16:15;;;;;;;;;;;;;;;13.25;79.82;102081.13;5049638;28;20430;-57
2022/05/20 02:18:56;;;;;;;;;;;;;;;13.23;79.86;102079.59;5044306;28;19921;-57
2022/05/20 02:21:24;;;;;;;;;;;;;;;13.18;80.04;102077.38;5048345;28;19932;-57
2022/05/20 02:23:53;;;;;;;;;;;;;;;13.14;80.06;102086.66;5050273;28;19921;-57
2022/05/20 02:26:20;;;;;;;;;;;;;;;13.12;79.98;102083.31;5051585;28;19925;-57
2022/05/20 02:28:49;;;;;;;;;;;;;;;13.10;79.82;102079.94;5046796;28;19925;-57
2022/05/20 02:31:20;;;;;;;;;;;;;;;13.12;79.84;102075.31;5046183;28;19928;-57
2022/05/20 02:33:46;;;;;;;;;;;;;;;13.11;80.00;102081.59;5050989;28;20364;-57
2022/05/20 02:36:20;;;;;;;;;;;;;;;13.09;79.84;102078.25;5045306;28;19946;-57
2022/05/20 02:38:45;;;;;;;;;;;;;;;13.08;80.11;102081.91;5052565;28;19921;-57
2022/05/20 02:41:10;;;;;;;;;;;;;;;13.02;79.95;102084.19;5049918;28;19924;-58
2022/05/20 02:43:36;;;;;;;;;;;;;;;13.07;79.94;102090.88;5050408;28;19948;-57
2022/05/20 02:46:01;;;;;;;;;;;;;;;13.03;80.04;102082.38;5050017;28;19947;-57
2022/05/20 02:48:26;;;;;;;;;;;;;;;12.95;79.70;102075.09;5051978;28;19917;-57
2022/05/20 02:50:52;;;;;;;;;;;;;;;12.93;79.88;102074.38;5049679;28;19928;-57
2022/05/20 02:53:17;;;;;;;;;;;;;;;12.89;79.90;102078.34;5047790;28;19925;-57
2022/05/20 02:55:42;;;;;;;;;;;;;;;12.85;79.95;102076.97;5047421;28;19982;-57
2022/05/20 02:58:08;;;;;;;;;;;;;;;12.84;80.29;102076.13;5050862;28;19921;-57
2022/05/20 03:06:02;;;;;;;;;;;;;;;12.69;80.22;102072.25;5047446;28;20713;-57
2022/05/20 03:08:27;;;;;;;;;;;;;;;12.64;80.15;102070.84;5050135;28;19920;-57
2022/05/20 03:10:52;;;;;;;;;;;;;;;12.61;80.03;102065.00;5052953;28;20393;-57
2022/05/20 03:13:17;;;;;;;;;;;;;;;12.60;80.39;102060.66;5055088;28;19921;-57
2022/05/20 03:15:43;;;;;;;;;;;;;;;12.60;80.30;102064.16;5054945;28;20465;-57
2022/05/20 03:18:09;;;;;;;;;;;;;;;12.59;80.33;102061.66;5037983;28;20368;-57
2022/05/20 03:20:35;;;;;;;;;;;;;;;12.57;80.14;102064.44;5051955;28;19925;-58
2022/05/20 03:23:00;;;;;;;;;;;;;;;12.59;80.35;102069.63;5053736;28;19927;-57
2022/05/20 03:25:25;;;;;;;;;;;;;;;12.57;80.42;102063.59;5040766;28;19930;-57
2022/05/20 03:27:50;;;;;;;;;;;;;;;12.56;80.31;102062.78;5053189;28;19924;-57
2022/05/20 03:30:16;;;;;;;;;;;;;;;12.48;80.70;102058.16;5053439;28;19963;-57
2022/05/20 03:32:41;;;;;;;;;;;;;;;12.47;80.51;102061.81;5050323;28;19964;-57
2022/05/20 03:35:07;;;;;;;;;;;;;;;12.46;80.48;102062.81;5052270;28;19960;-57
2022/05/20 03:37:32;;;;;;;;;;;;;;;12.47;80.40;102059.16;5050400;28;20383;-57
2022/05/20 03:39:57;;;;;;;;;;;;;;;12.46;80.57;102057.47;5054211;28;19916;-57
2022/05/20 03:42:23;;;;;;;;;;;;;;;12.45;80.69;102060.28;5053361;28;20339;-56
2022/05/20 03:44:49;;;;;;;;;;;;;;;12.45;80.72;102061.13;5052930;28;19948;-57
2022/05/20 03:47:14;;;;;;;;;;;;;;;12.47;80.84;102058.31;5053928;28;19921;-57
2022/05/20 03:49:40;;;;;;;;;;;;;;;12.47;80.86;102052.97;5053359;28;19924;-57
2022/05/20 03:52:06;;;;;;;;;;;;;;;12.47;80.63;102048.50;5053544;28;19920;-57
2022/05/20 03:54:32;;;;;;;;;;;;;;;12.48;81.01;102044.88;5053307;28;19925;-57
2022/05/20 03:56:57;;;;;;;;;;;;;;;12.50;81.14;102047.38;5054548;28;20014;-57
2022/05/20 03:59:23;;;;;;;;;;;;;;;12.45;81.15;102045.16;5052662;28;19988;-57
2022/05/20 04:01:57;;;;;;;;;;;;;;;12.41;80.72;102038.44;5047622;28;20401;-57
2022/05/20 04:04:24;;;;;;;;;;;;;;;12.34;81.49;102032.03;5046876;28;19921;-57
2022/05/20 04:06:49;;;;;;;;;;;;;;;12.30;81.44;102030.63;5050697;28;19943;-57
2022/05/20 04:09:14;;;;;;;;;;;;;;;12.28;81.18;102021.97;5054206;28;20268;-57
2022/05/20 04:11:40;;;;;;;;;;;;;;;12.29;80.91;102019.13;5053680;28;19921;-58
2022/05/20 04:14:05;;;;;;;;;;;;;;;12.31;81.13;102027.84;5052259;28;20078;-57
2022/05/20 04:16:30;;;;;;;;;;;;;;;12.34;80.98;102026.72;5036160;28;19924;-57
2022/05/20 04:18:56;;;;;;;;;;;;;;;12.35;80.94;102023.06;5052775;28;19921;-58
2022/05/20 04:21:21;;;;;;;;;;;;;;;12.37;80.81;102013.09;5051247;28;20367;-57
2022/05/20 04:23:46;;;;;;;;;;;;;;;12.41;81.17;102011.00;5052807;28;19944;-57
2022/05/20 04:26:11;;;;;;;;;;;;;;;12.38;81.35;102017.44;5053432;28;19925;-57
2022/05/20 04:28:37;;;;;;;;;;;;;;;12.35;81.45;102017.75;5051339;28;19921;-57
2022/05/20 04:31:03;;;;;;;;;;;;;;;12.35;81.38;102023.06;5051517;28;20011;-57
2022/05/20 04:33:29;;;;;;;;;;;;;;;12.36;81.67;102024.75;5052592;28;19921;-57
2022/05/20 04:35:54;;;;;;;;;;;;;;;12.35;81.64;102020.41;5039816;28;20434;-58
2022/05/20 04:38:19;;;;;;;;;;;;;;;12.32;81.89;102020.69;5042889;28;19920;-57
2022/05/20 04:40:45;;;;;;;;;;;;;;;12.31;82.15;102016.34;5051817;28;19925;-57
2022/05/20 04:48:38;;;;;;;;;;;;;;;12.25;82.59;102028.41;5050576;28;19927;-58
2022/05/20 04:51:03;;;;;;;;;;;;;;;12.21;82.11;102038.50;5048247;28;19937;-58
2022/05/20 04:56:13;;;;;;;;;;;;;;;12.22;82.06;102049.97;5032276;28;20279;-59
2022/05/20 04:58:38;;;;;;;;;;;;;;;12.28;81.87;102052.03;5043808;28;19917;-59
2022/05/20 05:01:03;;;;;;;;;;;;;;;12.35;82.34;102047.81;5047925;28;19927;-60
2022/05/20 05:03:28;;;;;;;;;;;;;;;12.35;81.93;102047.00;5044559;28;19925;-60
2022/05/20 05:05:53;;;;;;;;;;;;;;;12.37;82.27;102045.03;5045070;28;20012;-59
2022/05/20 05:08:19;;;;;;;;;;;;;;;12.43;82.20;102047.13;5044874;28;19921;-60
2022/05/20 05:10:44;;;;;;;;;;;;;;;12.48;82.38;102044.03;5047908;28;19924;-59
2022/05/20 05:13:10;;;;;;;;;;;;;;;12.49;82.73;102041.22;5045298;28;19920;-59
2022/05/20 05:15:38;;;;;;;;;;;;;;;12.54;83.12;102035.47;5043749;28;19921;-59
2022/05/20 05:18:12;;;;;;;;;;;;;;;12.54;82.72;102040.81;5039811;28;19925;-59
2022/05/20 05:20:47;;;;;;;;;;;;;;;12.51;83.50;102049.91;5049155;28;19921;-59
2022/05/20 05:23:14;;;;;;;;;;;;;;;12.49;83.12;102038.56;5042809;28;19920;-60
2022/05/20 05:25:39;;;;;;;;;;;;;;;12.50;83.86;102044.72;5043466;28;19927;-60
2022/05/20 05:28:05;;;;;;;;;;;;;;;12.55;84.02;102054.94;5039955;28;19921;-58
2022/05/20 05:30:30;;;;;;;;;;;;;;;12.58;83.10;102044.84;5046863;28;19929;-59
2022/05/20 05:32:55;;;;;;;;;;;;;;;12.62;82.93;102040.06;5048230;28;19925;-59
2022/05/20 05:35:23;;;;;;;;;;;;;;;12.63;84.41;102031.13;5031507;28;19917;-60
2022/05/20 05:37:48;;;;;;;;;;;;;;;12.67;84.20;102021.84;5046870;28;19925;-60
2022/05/20 05:40:15;;;;;;;;;;;;;;;12.71;83.70;102017.91;5041326;28;20075;-58
2022/05/20 05:42:43;;;;;;;;;;;;;;;12.76;84.68;102014.78;5045164;28;19967;-58
2022/05/20 05:45:09;;;;;;;;;;;;;;;12.83;83.49;102009.72;5041819;28;19928;-59
2022/05/20 05:47:34;;;;;;;;;;;;;;;12.96;83.65;102017.34;5047445;28;19928;-58
2022/05/20 05:50:00;;;;;;;;;;;;;;;12.98;84.08;102010.88;5046718;28;19920;-59
2022/05/20 05:52:25;;;;;;;;;;;;;;;13.00;83.91;102018.75;5037544;28;19940;-59
2022/05/20 05:54:50;;;;;;;;;;;;;;;13.08;83.85;102010.84;5045038;28;20291;-60
2022/05/20 05:57:15;;;;;;;;;;;;;;;13.19;84.05;102009.81;5045456;28;19948;-59
2022/05/20 05:59:41;;;;;;;;;;;;;;;13.25;83.87;102003.88;5044421;28;19924;-59
2022/05/20 06:02:08;;;;;;;;;;;;;;;13.34;84.08;102017.28;5045170;28;20379;-59
2022/05/20 06:04:33;;;;;;;;;;;;;;;13.43;84.14;102011.03;5039694;28;20011;-59
2022/05/20 06:06:58;;;;;;;;;;;;;;;13.48;85.31;102008.81;5048724;28;20004;-60
2022/05/20 06:09:24;;;;;;;;;;;;;;;13.52;83.82;102010.16;5048777;28;19925;-59
2022/05/20 06:11:49;;;;;;;;;;;;;;;13.62;84.16;102011.91;5042876;28;19921;-59
2022/05/20 06:14:15;;;;;;;;;;;;;;;13.70;84.04;102006.66;5040868;28;19925;-62
2022/05/20 06:16:41;;;;;;;;;;;;;;;13.80;84.16;102004.75;5042904;28;19921;-61
2022/05/20 06:19:06;;;;;;;;;;;;;;;13.95;83.64;102001.50;5044105;28;19924;-59
2022/05/20 06:21:32;;;;;;;;;;;;;;;14.02;83.75;101999.06;5045479;28;20375;-58
2022/05/20 06:24:00;;;;;;;;;;;;;;;14.18;83.79;102006.34;5045010;28;20356;-61
2022/05/20 06:26:26;;;;;;;;;;;;;;;14.23;83.64;102006.72;5043165;28;19983;-59
2022/05/20 06:28:51;;;;;;;;;;;;;;;14.31;83.44;101998.75;5042057;28;20326;-60
2022/05/20 06:31:17;;;;;;;;;;;;;;;14.36;83.55;101991.09;5046163;28;19925;-58
2022/05/20 06:33:43;;;;;;;;;;;;;;;14.39;83.78;101996.13;5047080;28;19928;-60
2022/05/20 06:41:35;;;;;;;;;;;;;;;14.47;82.42;101981.16;5051415;28;19948;-60
2022/05/20 06:44:02;;;;;;;;;;;;;;;14.46;82.79;101974.16;5050809;28;20398;-60
2022/05/20 06:46:28;;;;;;;;;;;;;;;14.50;82.55;101967.47;5053840;28;19927;-60
2022/05/20 06:48:55;;;;;;;;;;;;;;;14.59;81.95;101969.19;5055622;28;19917;-61
2022/05/20 06:51:23;;;;;;;;;;;;;;;14.62;82.16;101968.91;5054948;28;20020;-61
2022/05/20 06:53:51;;;;;;;;;;;;;;;14.70;82.39;101975.25;5053272;28;19929;-61
2022/05/20 06:56:16;;;;;;;;;;;;;;;14.74;81.88;101969.47;5048163;28;20380;-61
2022/05/20 06:58:42;;;;;;;;;;;;;;;14.79;81.65;101961.81;5049794;28;19929;-60
2022/05/20 07:01:07;;;;;;;;;;;;;;;14.93;81.73;101968.34;5051355;28;19920;-61
2022/05/20 07:03:33;;;;;;;;;;;;;;;15.03;81.39;101960.19;5055422;28;19927;-61
2022/05/20 07:05:58;;;;;;;;;;;;;;;15.13;80.88;101957.38;5052934;28;20359;-62
2022/05/20 07:08:24;;;;;;;;;;;;;;;15.26;80.37;101956.06;5055267;28;20371;-62
2022/05/20 07:10:49;;;;;;;;;;;;;;;15.38;80.11;101951.22;5055048;28;20326;-61
2022/05/20 07:13:14;;;;;;;;;;;;;;;15.45;79.16;101952.25;5053974;28;20012;-61
2022/05/20 07:15:39;;;;;;;;;;;;;;;15.49;77.20;101942.88;5054595;28;19921;-56
2022/05/20 07:18:05;;;;;;;;;;;;;;;15.50;78.87;101941.03;5053359;28;19927;-57
2022/05/20 07:20:30;;;;;;;;;;;;;;;15.57;79.07;101926.00;5050941;28;20027;-57
2022/05/20 07:22:55;;;;;;;;;;;;;;;15.63;78.45;101930.66;5053084;28;19921;-57
2022/05/20 07:25:20;;;;;;;;;;;;;;;15.73;77.48;101930.47;5053109;28;19932;-57
2022/05/20 07:27:46;;;;;;;;;;;;;;;15.88;77.53;101925.28;5053821;28;20325;-57
2022/05/20 07:30:12;;;;;;;;;;;;;;;15.98;77.48;101934.00;5049947;28;19933;-58
2022/05/20 07:32:37;;;;;;;;;;;;;;;16.06;77.27;101921.59;5050967;28;19921;-57
2022/05/20 07:35:03;;;;;;;;;;;;;;;16.20;77.55;101918.22;5054361;28;19979;-57
2022/05/20 07:37:28;;;;;;;;;;;;;;;16.33;76.83;101922.19;5053719;28;19921;-57
2022/05/20 07:39:53;;;;;;;;;;;;;;;16.40;76.46;101928.50;5052514;28;20256;-57
2022/05/20 07:42:18;;;;;;;;;;;;;;;16.46;72.39;101926.97;5051820;28;19924;-57
2022/05/20 07:44:44;;;;;;;;;;;;;;;16.54;75.42;101914.38;5053508;28;19921;-57
2022/05/20 07:47:09;;;;;;;;;;;;;;;16.67;74.57;101910.28;5052319;28;19995;-57
2022/05/20 07:49:34;;;;;;;;;;;;;;;16.63;71.61;101900.97;5050868;28;19927;-57
2022/05/20 07:52:02;;;;;;;;;;;;;;;16.66;73.89;101892.56;5052891;28;20276;-57
2022/05/20 07:54:29;;;;;;;;;;;;;;;16.70;73.97;101891.22;5053237;28;19952;-57
2022/05/20 07:57:04;;;;;;;;;;;;;;;16.80;73.54;101891.81;5049565;28;20352;-57
2022/05/20 07:59:53;;;;;;;;;;;;;;;16.92;73.74;101896.75;5052468;28;19921;-57
2022/05/20 08:02:20;;;;;;;;;;;;;;;17.00;73.35;101886.00;5035467;28;20454;-58
2022/05/20 08:04:53;;;;;;;;;;;;;;;17.11;73.09;101881.28;5036168;28;20328;-58
2022/05/20 08:07:20;;;;;;;;;;;;;;;17.18;71.84;101874.97;5045623;28;20441;-58
2022/05/20 08:09:45;;;;;;;;;;;;;;;17.29;70.40;101868.38;5049843;28;19943;-58
2022/05/20 08:12:10;;;;;;;;;;;;;;;17.38;69.55;101868.28;5052143;28;20407;-60
2022/05/20 08:14:36;;;;;;;;;;;;;;;17.49;66.26;101878.59;5049574;28;20386;-59
2022/05/20 08:17:02;;;;;;;;;;;;;;;17.53;70.72;101874.53;5054314;28;19925;-60
2022/05/20 08:19:28;;;;;;;;;;;;;;;17.66;70.87;101870.38;5051734;28;20333;-61
2022/05/20 08:21:53;;;;;;;;;;;;;;;17.75;70.85;101871.94;5050134;28;19999;-60
2022/05/20 08:24:19;;;;;;;;;;;;;;;17.84;68.70;101868.16;5045986;28;19929;-59
2022/05/20 08:26:44;;;;;;;;;;;;;;;17.85;68.92;101861.78;5041378;28;19928;-55
2022/05/20 08:29:12;;;;;;;;;;;;;;;17.91;68.53;101862.06;5051848;28;19973;-58
2022/05/20 08:31:37;;;;;;;;;;;;;;;17.91;69.37;101857.50;5053951;28;19927;-56
2022/05/20 08:34:02;;;;;;;;;;;;;;;17.97;67.68;101853.25;5050694;28;19924;-57
2022/05/20 08:36:29;;;;;;;;;;;;;;;17.86;68.41;101854.56;5049059;28;19921;-57
2022/05/20 08:38:54;;;;;;;;;;;;;;;17.81;67.09;101849.75;5049197;28;19935;-57
2022/05/20 08:41:24;;;;;;;;;;;;;;;17.82;68.93;101835.31;5049190;28;19924;-57
2022/05/20 08:43:49;;;;;;;;;;;;;;;17.81;65.99;101828.28;5042832;28;20387;-57
2022/05/20 08:46:15;;;;;;;;;;;;;;;17.75;67.60;101818.28;5050956;28;19982;-58
2022/05/20 08:48:41;;;;;;;;;;;;;;;17.78;66.97;101801.84;5052763;28;19964;-57
2022/05/20 08:51:06;;;;;;;;;;;;;;;17.77;68.24;101802.88;5053729;28;19916;-57
2022/05/20 08:53:35;;;;;;;;;;;;;;;17.95;66.81;101801.66;5050318;28;20405;-57
2022/05/20 08:56:02;;;;;;;;;;;;;;;17.99;67.69;101792.19;5053052;28;19921;-57
2022/05/20 08:58:27;;;;;;;;;;;;;;;18.17;67.21;101790.97;5051937;28;20342;-57
2022/05/20 09:00:53;;;;;;;;;;;;;;;18.27;67.91;101795.00;5053279;28;19916;-57
2022/05/20 09:03:18;;;;;;;;;;;;;;;18.41;66.75;101806.72;5052056;28;19921;-58
2022/05/20 09:05:44;;;;;;;;;;;;;;;18.36;67.14;101808.34;5053310;28;20240;-58
2022/05/20 09:08:16;;;;;;;;;;;;;;;18.35;67.24;101796.75;5048124;28;19925;-57
2022/05/20 09:10:48;;;;;;;;;;;;;;;18.35;66.98;101788.69;5052454;28;19923;-57
2022/05/20 09:13:22;;;;;;;;;;;;;;;18.49;66.91;101794.19;5050868;28;19971;-57
2022/05/20 09:16:01;;;;;;;;;;;;;;;18.41;64.86;101779.06;5052141;28;19944;-57
2022/05/20 09:18:39;;;;;;;;;;;;;;;18.35;66.20;101767.22;5052112;28;20370;-57
2022/05/20 09:21:04;;;;;;;;;;;;;;;18.45;66.83;101771.47;5052014;28;20004;-57
2022/05/20 09:23:29;;;;;;;;;;;;;;;18.68;65.69;101764.03;5052486;28;19991;-57
2022/05/20 09:26:08;;;;;;;;;;;;;;;18.78;65.66;101749.41;5053205;28;19917;-57
2022/05/20 09:28:39;;;;;;;;;;;;;;;18.75;65.73;101736.41;5051830;28;20575;-57
2022/05/20 09:31:06;;;;;;;;;;;;;;;18.79;64.27;101726.91;5044008;28;19925;-57
2022/05/20 09:33:34;;;;;;;;;;;;;;;18.89;64.36;101722.03;5046168;28;19967;-58
2022/05/20 09:36:00;;;;;;;;;;;;;;;18.92;65.89;101726.19;5039314;28;20434;-57
2022/05/20 09:38:30;;;;;;;;;;;;;;;18.96;65.87;101724.78;5043179;28;19921;-58
2022/05/20 09:40:55;;;;;;;;;;;;;;;18.98;65.40;101727.28;5042484;28;19940;-58
2022/05/20 09:43:23;;;;;;;;;;;;;;;19.00;64.09;101722.50;5045195;28;19925;-58
2022/05/20 09:45:49;;;;;;;;;;;;;;;19.04;64.04;101713.06;5048958;28;19928;-58
2022/05/20 09:48:16;;;;;;;;;;;;;;;19.18;61.80;101704.06;5041749;28;20279;-58
2022/05/20 09:50:55;;;;;;;;;;;;;;;19.19;63.30;101689.56;5048976;28;19928;-59
2022/05/20 09:53:32;;;;;;;;;;;;;;;19.31;63.82;101681.78;5042994;28;20023;-57
2022/05/20 09:56:13;;;;;;;;;;;;;;;19.51;63.88;101659.53;5042516;28;20052;-57
2022/05/20 09:58:38;;;;;;;;;;;;;;;19.65;63.85;101673.84;5040776;28;19921;-59
2022/05/20 10:01:08;;;;;;;;;;;;;;;19.71;64.35;101667.66;5043207;28;20415;-57
2022/05/20 10:03:43;;;;;;;;;;;;;;;19.83;64.44;101646.34;5039543;28;20421;-57
2022/05/20 10:06:15;;;;;;;;;;;;;;;19.90;64.27;101641.00;5044719;28;19928;-57
2022/05/20 10:08:51;;;;;;;;;;;;;;;20.07;62.06;101635.25;5039062;28;19979;-58
2022/05/20 10:11:20;;;;;;;;;;;;;;;19.96;64.28;101623.22;5039210;28;19979;-57
2022/05/20 10:13:55;;;;;;;;;;;;;;;19.97;63.82;101614.94;5033026;28;20291;-57
2022/05/20 10:16:32;;;;;;;;;;;;;;;20.06;63.18;101612.03;5041652;28;19932;-58
2022/05/20 10:18:58;;;;;;;;;;;;;;;20.01;63.68;101605.44;5039854;28;20030;-57
2022/05/20 10:21:36;;;;;;;;;;;;;;;20.06;63.97;101595.88;5049109;28;20081;-58
2022/05/20 10:24:08;;;;;;;;;;;;;;;20.13;63.77;101596.75;5054324;28;19933;-58
2022/05/20 10:26:43;;;;;;;;;;;;;;;20.11;63.71;101585.34;5056611;28;20059;-57
2022/05/20 10:34:50;;;;;;;;;;;;;;;20.17;63.45;101571.03;5048312;28;20004;-62
2022/05/20 10:37:30;;;;;;;;;;;;;;;20.18;63.18;101555.72;5053160;28;20011;-61
2022/05/20 10:39:58;;;;;;;;;;;;;;;20.16;63.03;101546.00;5051344;28;19936;-60
2022/05/20 10:42:32;;;;;;;;;;;;;;;20.10;62.75;101535.22;5046805;28;19975;-59
2022/05/20 10:48:34;;;;;;;;;;;;;;;20.06;63.26;101509.75;5052792;28;20410;-58
2022/05/20 10:50:59;;;;;;;;;;;;;;;20.06;63.45;101498.97;5056413;28;19924;-58
2022/05/20 10:53:43;;;;;;;;;;;;;;;20.14;62.21;101490.69;5055280;28;20303;-59
2022/05/20 10:56:26;;;;;;;;;;;;;;;20.02;63.34;101472.50;5046749;28;19929;-58
2022/05/20 10:58:57;;;;;;;;;;;;;;;20.08;63.26;101457.34;5047756;28;19921;-58
2022/05/20 11:01:29;;;;;;;;;;;;;;;20.04;63.95;101448.06;5050195;28;19979;-58
2022/05/20 11:03:54;;;;;;;;;;;;;;;20.12;63.60;101426.28;5046407;28;19921;-58
2022/05/20 11:06:22;;;;;;;;;;;;;;;20.13;63.32;101429.81;5049824;28;19928;-57
2022/05/20 11:08:53;;;;;;;;;;;;;;;20.11;63.41;101415.72;5048401;28;19974;-59
2022/05/20 11:11:25;;;;;;;;;;;;;;;20.08;62.81;101413.47;5049175;28;20520;-57
2022/05/20 11:14:06;;;;;;;;;;;;;;;20.09;62.50;101401.66;5046511;28;20015;-58
2022/05/20 11:16:44;;;;;;;;;;;;;;;20.13;63.23;101392.13;5044742;28;19924;-57
2022/05/20 11:19:09;;;;;;;;;;;;;;;20.19;63.28;101391.28;5050862;28;19928;-58
2022/05/20 11:21:34;;;;;;;;;;;;;;;20.27;63.18;101395.56;5053588;28;19921;-58
2022/05/20 11:24:01;;;;;;;;;;;;;;;20.27;63.52;101393.72;5057049;28;19921;-58
2022/05/20 11:26:36;;;;;;;;;;;;;;;20.27;63.87;101380.25;5057299;28;19960;-57
2022/05/20 11:29:24;;;;;;;;;;;;;;;20.26;63.71;101380.47;5055123;28;20446;-58
2022/05/20 11:31:52;;;;;;;;;;;;;;;20.20;63.83;101374.09;5053264;28;19921;-57
2022/05/20 11:34:23;;;;;;;;;;;;;;;20.10;64.39;101376.38;5055294;28;20399;-57
2022/05/20 11:36:55;;;;;;;;;;;;;;;20.05;64.63;101374.34;5053374;28;19935;-58
2022/05/20 11:39:32;;;;;;;;;;;;;;;20.00;65.19;101368.75;5052067;28;19942;-58
2022/05/20 11:42:05;;;;;;;;;;;;;;;19.97;64.86;101366.47;5055174;28;19960;-58
2022/05/20 11:44:46;;;;;;;;;;;;;;;19.93;64.78;101363.34;5049813;28;20310;-59
2022/05/20 11:47:21;;;;;;;;;;;;;;;19.86;65.50;101362.56;5054812;28;19960;-58
2022/05/20 11:50:01;;;;;;;;;;;;;;;19.83;65.65;101349.53;5053639;28;20322;-59
2022/05/20 11:52:44;;;;;;;;;;;;;;;19.78;66.03;101330.50;5054178;28;19927;-59
2022/05/20 11:55:16;;;;;;;;;;;;;;;19.68;67.33;101296.78;5048113;28;19940;-59
2022/05/20 11:57:43;;;;;;;;;;;;;;;19.61;66.89;101298.66;5053564;28;19931;-59
2022/05/20 12:00:10;;;;;;;;;;;;;;;19.59;66.97;101322.28;5043007;28;19920;-59
2022/05/20 12:02:41;;;;;;;;;;;;;;;19.56;67.74;101322.69;5054069;28;19925;-59
2022/05/20 12:05:10;;;;;;;;;;;;;;;19.49;68.18;101334.28;5053138;28;19932;-59
2022/05/20 12:07:37;;;;;;;;;;;;;;;19.46;68.65;101377.75;5050366;28;19921;-59
2022/05/20 12:10:15;;;;;;;;;;;;;;;19.43;71.44;101340.50;5053065;28;20379;-59
2022/05/20 12:12:51;;;;;;;;;;;;;;;19.36;74.21;101300.16;5045736;28;20326;-59
2022/05/20 12:15:19;;;;;;;;;;;;;;;19.24;74.95;101287.56;5053334;28;19944;-59
2022/05/20 12:17:48;;;;;;;;;;;;;;;19.12;72.39;101309.69;5054125;28;19985;-58
2022/05/20 12:26:03;;;;;;;;;;;;;;;18.91;72.95;101300.75;5052793;28;20034;-59
2022/05/20 12:28:30;;;;;;;;;;;;;;;18.88;75.91;101285.06;5052815;28;19975;-59
2022/05/20 12:31:07;;;;;;;;;;;;;;;18.82;75.69;101281.34;5053719;28;20287;-59
2022/05/20 12:33:51;;;;;;;;;;;;;;;18.77;75.87;101250.75;5054153;28;19917;-58
2022/05/20 12:36:20;;;;;;;;;;;;;;;18.74;74.35;101232.38;5050710;28;19963;-59
2022/05/20 12:38:46;;;;;;;;;;;;;;;18.68;75.27;101225.94;5052445;28;19921;-59
2022/05/20 12:41:15;;;;;;;;;;;;;;;18.63;79.50;101197.03;5055022;28;19956;-59
2022/05/20 12:43:52;;;;;;;;;;;;;;;18.62;77.79;101181.97;5053012;28;20287;-59
2022/05/20 12:46:20;;;;;;;;;;;;;;;18.65;76.37;101202.22;5050667;28;19916;-59
2022/05/20 12:48:47;;;;;;;;;;;;;;;18.68;78.68;101208.00;5052189;28;20588;-58
2022/05/20 12:51:12;;;;;;;;;;;;;;;18.76;77.69;101216.88;5053178;28;20355;-59
2022/05/20 12:53:40;;;;;;;;;;;;;;;18.89;78.60;101227.59;5052515;28;19927;-59
2022/05/20 12:56:06;;;;;;;;;;;;;;;19.00;76.07;101249.50;5053197;28;20383;-59
2022/05/20 12:58:32;;;;;;;;;;;;;;;19.07;78.77;101255.72;5051444;28;19932;-58
2022/05/20 13:00:59;;;;;;;;;;;;;;;19.11;77.91;101259.66;5051274;28;20436;-59
2022/05/20 13:03:36;;;;;;;;;;;;;;;19.16;80.53;101257.19;5045516;28;19921;-59
2022/05/20 13:06:03;;;;;;;;;;;;;;;19.16;77.69;101251.81;5052482;28;19921;-58
2022/05/20 13:08:47;;;;;;;;;;;;;;;19.21;78.22;101241.22;5053179;28;19921;-58
2022/05/20 13:11:13;;;;;;;;;;;;;;;19.28;78.23;101253.88;5052049;28;19932;-59
2022/05/20 13:13:38;;;;;;;;;;;;;;;19.32;79.30;101247.00;5052014;28;19973;-57